createdAt,value
2019-06-27T00:00:55.189Z,18.43
2019-06-27T00:03:21.214Z,17.20
2019-06-27T00:05:47.337Z,16.90
2019-06-27T00:08:13.556Z,17.70
2019-06-27T00:10:39.600Z,16.30
2019-06-27T00:13:05.600Z,16.50
2019-06-27T00:15:31.626Z,18.73
2019-06-27T00:17:57.697Z,17.23
2019-06-27T00:20:23.788Z,16.40
2019-06-27T00:22:49.834Z,15.50
2019-06-27T00:25:15.858Z,16.23
2019-06-27T00:27:41.892Z,17.07
2019-06-27T00:30:08.216Z,16.20
2019-06-27T00:32:34.246Z,16.20
2019-06-27T00:35:00.562Z,17.50
2019-06-27T00:37:26.577Z,16.93
2019-06-27T00:39:52.577Z,17.30
2019-06-27T00:42:19.799Z,16.53
2019-06-27T00:44:45.849Z,18.20
2019-06-27T00:47:12.007Z,16.73
2019-06-27T00:49:38.224Z,17.60
2019-06-27T00:52:04.377Z,17.10
2019-06-27T00:54:30.388Z,17.67
2019-06-27T00:57:12.599Z,16.87
2019-06-27T00:59:24.297Z,17.10
2019-06-27T01:01:50.583Z,16.63
2019-06-27T01:04:19.290Z,17.20
2019-06-27T01:06:47.289Z,16.70
2019-06-27T01:09:13.346Z,15.73
2019-06-27T01:11:39.407Z,15.43
2019-06-27T01:14:05.532Z,16.07
2019-06-27T01:16:31.636Z,15.50
2019-06-27T01:18:57.651Z,16.23
2019-06-27T01:21:23.670Z,16.70
2019-06-27T01:23:49.696Z,14.70
2019-06-27T01:26:15.824Z,15.07
2019-06-27T01:28:41.842Z,15.10
2019-06-27T01:31:07.962Z,15.60
2019-06-27T01:33:38.701Z,15.03
2019-06-27T01:36:04.719Z,15.57
2019-06-27T01:38:30.748Z,14.50
2019-06-27T01:40:56.850Z,14.30
2019-06-27T01:43:24.761Z,14.40
2019-06-27T01:45:52.768Z,13.87
2019-06-27T01:48:20.070Z,14.30
2019-06-27T01:50:46.061Z,15.47
2019-06-27T01:53:12.105Z,15.90
2019-06-27T01:55:38.589Z,15.40
2019-06-27T01:58:04.766Z,14.80
2019-06-27T02:00:31.204Z,16.30
2019-06-27T02:02:57.401Z,15.00
2019-06-27T02:05:23.446Z,15.17
2019-06-27T02:07:49.462Z,15.40
2019-06-27T02:10:16.825Z,15.13
2019-06-27T02:12:42.846Z,16.10
2019-06-27T02:15:09.074Z,15.20
2019-06-27T02:17:35.094Z,15.20
2019-06-27T02:20:01.350Z,14.70
2019-06-27T02:22:27.373Z,13.90
2019-06-27T02:24:53.402Z,14.07
2019-06-27T02:27:19.430Z,16.00
2019-06-27T02:29:45.444Z,14.37
2019-06-27T02:32:11.480Z,14.80
2019-06-27T02:34:37.505Z,15.00
2019-06-27T02:37:03.497Z,14.33
2019-06-27T02:39:29.523Z,14.40
2019-06-27T02:41:55.565Z,14.17
2019-06-27T02:44:21.610Z,14.07
2019-06-27T02:46:47.638Z,14.20
2019-06-27T02:49:13.633Z,13.20
2019-06-27T02:51:39.848Z,12.90
2019-06-27T02:54:05.884Z,16.20
2019-06-27T02:56:31.898Z,14.50
2019-06-27T02:58:57.913Z,13.27
2019-06-27T03:01:23.965Z,14.53
2019-06-27T03:03:49.983Z,13.60
2019-06-27T03:06:15.998Z,14.37
2019-06-27T03:08:42.026Z,13.07
2019-06-27T03:11:08.080Z,13.73
2019-06-27T03:13:36.973Z,12.97
2019-06-27T03:16:02.983Z,13.23
2019-06-27T03:18:30.157Z,11.43
2019-06-27T03:20:56.213Z,12.17
2019-06-27T03:23:22.218Z,11.77
2019-06-27T03:25:48.272Z,12.47
2019-06-27T03:28:14.602Z,11.80
2019-06-27T03:30:40.822Z,11.00
2019-06-27T03:33:06.881Z,11.50
2019-06-27T03:35:32.906Z,11.97
2019-06-27T03:37:59.157Z,12.50
2019-06-27T03:40:25.278Z,11.57
2019-06-27T03:42:51.405Z,11.57
2019-06-27T03:45:17.501Z,11.63
2019-06-27T03:47:44.850Z,12.13
2019-06-27T03:50:11.142Z,11.37
2019-06-27T03:52:37.204Z,11.47
2019-06-27T03:55:04.012Z,12.40
2019-06-27T03:57:30.096Z,11.70
2019-06-27T03:59:56.097Z,10.80
2019-06-27T04:02:22.222Z,10.60
2019-06-27T04:04:48.272Z,11.20
2019-06-27T04:07:14.319Z,11.20
2019-06-27T04:09:40.435Z,10.17
2019-06-27T04:12:06.675Z,10.97
2019-06-27T04:14:32.672Z,11.53
2019-06-27T04:16:58.960Z,11.40
2019-06-27T04:19:25.093Z,11.20
2019-06-27T04:21:51.224Z,11.23
2019-06-27T04:24:19.196Z,12.60
2019-06-27T04:26:47.269Z,11.77
2019-06-27T04:29:31.912Z,11.40
2019-06-27T04:31:41.255Z,12.60
2019-06-27T04:34:07.518Z,12.20
2019-06-27T04:36:33.520Z,11.47
2019-06-27T04:38:59.528Z,11.63
2019-06-27T04:41:25.516Z,11.70
2019-06-27T04:43:51.581Z,11.57
2019-06-27T04:46:17.640Z,12.37
2019-06-27T04:48:43.817Z,11.80
2019-06-27T04:51:10.421Z,11.40
2019-06-27T04:53:38.676Z,13.27
2019-06-27T04:56:04.956Z,11.97
2019-06-27T04:58:31.019Z,13.30
2019-06-27T05:00:57.029Z,11.80
2019-06-27T05:03:23.091Z,12.83
2019-06-27T05:05:49.099Z,12.03
2019-06-27T05:08:15.197Z,12.20
2019-06-27T05:10:42.791Z,13.13
2019-06-27T05:13:08.974Z,16.30
2019-06-27T05:15:35.027Z,13.73
2019-06-27T05:18:01.077Z,12.20
2019-06-27T05:20:27.118Z,12.27
2019-06-27T05:22:53.158Z,13.63
2019-06-27T05:25:21.192Z,13.83
2019-06-27T05:27:47.309Z,12.17
2019-06-27T05:30:15.307Z,11.40
2019-06-27T05:32:41.393Z,12.50
2019-06-27T05:35:08.061Z,16.30
2019-06-27T05:37:34.262Z,12.00
2019-06-27T05:40:00.373Z,10.37
2019-06-27T05:42:26.775Z,10.87
2019-06-27T05:44:52.896Z,10.10
2019-06-27T05:47:19.015Z,9.77
2019-06-27T05:49:45.114Z,31.10
2019-06-27T05:52:11.253Z,12.37
2019-06-27T05:54:38.052Z,10.90
2019-06-27T05:57:04.222Z,11.00
2019-06-27T05:59:30.345Z,10.83
2019-06-27T06:02:04.059Z,10.10
2019-06-27T06:04:30.160Z,10.67
2019-06-27T06:06:57.362Z,10.07
2019-06-27T06:09:23.504Z,10.90
2019-06-27T06:11:49.579Z,13.63
2019-06-27T06:14:15.754Z,11.50
2019-06-27T06:16:41.803Z,13.30
2019-06-27T06:19:07.943Z,10.20
2019-06-27T06:21:34.035Z,10.60
2019-06-27T06:24:00.091Z,10.17
2019-06-27T06:26:28.414Z,10.67
2019-06-27T06:28:55.825Z,10.20
2019-06-27T06:31:22.372Z,10.00
2019-06-27T06:33:48.437Z,10.60
2019-06-27T06:36:14.625Z,9.93
2019-06-27T06:38:40.791Z,10.77
2019-06-27T06:41:06.857Z,9.77
2019-06-27T06:43:32.969Z,10.27
2019-06-27T06:45:59.047Z,10.47
2019-06-27T06:48:25.066Z,9.10
2019-06-27T06:50:52.488Z,9.00
2019-06-27T06:53:18.632Z,8.80
2019-06-27T06:55:44.982Z,9.10
2019-06-27T06:58:11.011Z,8.27
2019-06-27T07:00:37.047Z,9.87
2019-06-27T07:03:03.065Z,9.10
2019-06-27T07:05:29.902Z,11.00
2019-06-27T07:07:55.928Z,8.80
2019-06-27T07:10:22.117Z,8.93
2019-06-27T07:12:48.156Z,10.00
2019-06-27T07:15:15.552Z,8.70
2019-06-27T07:17:41.739Z,9.40
2019-06-27T07:20:07.936Z,9.10
2019-06-27T07:22:33.941Z,8.40
2019-06-27T07:25:02.599Z,9.50
2019-06-27T07:27:29.119Z,7.93
2019-06-27T07:29:55.524Z,7.63
2019-06-27T07:32:23.440Z,7.50
2019-06-27T07:34:49.690Z,7.63
2019-06-27T07:37:15.763Z,8.50
2019-06-27T07:39:41.833Z,7.87
2019-06-27T07:42:07.913Z,7.87
2019-06-27T07:44:34.041Z,7.53
2019-06-27T07:47:00.164Z,7.70
2019-06-27T07:49:26.188Z,7.10
2019-06-27T07:51:52.292Z,7.10
2019-06-27T07:54:18.457Z,5.87
2019-06-27T07:56:46.345Z,7.40
2019-06-27T07:59:12.616Z,6.80
2019-06-27T08:01:38.678Z,6.77
2019-06-27T08:04:04.688Z,6.80
2019-06-27T08:06:30.854Z,7.83
2019-06-27T08:08:56.919Z,7.37
2019-06-27T08:11:23.380Z,8.20
2019-06-27T08:13:49.393Z,7.50
2019-06-27T08:16:15.406Z,8.13
2019-06-27T08:18:41.426Z,8.53
2019-06-27T08:21:07.471Z,8.30
2019-06-27T08:23:41.344Z,8.30
2019-06-27T08:26:01.796Z,9.20
2019-06-27T08:28:27.840Z,8.30
2019-06-27T08:30:53.866Z,8.17
2019-06-27T08:33:21.812Z,7.30
2019-06-27T08:35:48.619Z,8.97
2019-06-27T08:38:14.642Z,8.40
2019-06-27T08:40:40.760Z,8.57
2019-06-27T08:43:06.785Z,8.27
2019-06-27T08:45:32.789Z,7.77
2019-06-27T08:47:58.804Z,8.13
2019-06-27T08:50:24.910Z,7.03
2019-06-27T08:52:50.912Z,8.00
2019-06-27T08:55:17.039Z,8.20
2019-06-27T08:57:43.072Z,9.03
2019-06-27T09:00:11.471Z,8.00
2019-06-27T09:02:37.661Z,8.30
2019-06-27T09:05:05.664Z,8.87
2019-06-27T09:07:31.935Z,8.30
2019-06-27T09:09:59.069Z,8.20
2019-06-27T09:12:25.072Z,7.77
2019-06-27T09:14:51.101Z,7.50
2019-06-27T09:17:17.290Z,7.70
2019-06-27T09:19:43.345Z,7.90
2019-06-27T09:22:09.328Z,8.00
2019-06-27T09:24:35.632Z,6.90
2019-06-27T09:27:01.675Z,7.20
2019-06-27T09:29:27.680Z,7.20
2019-06-27T09:31:53.707Z,6.80
2019-06-27T09:34:21.524Z,6.93
2019-06-27T09:36:47.615Z,6.80
2019-06-27T09:39:13.735Z,6.83
2019-06-27T09:41:39.716Z,6.70
2019-06-27T09:44:05.816Z,7.03
2019-06-27T09:46:31.826Z,6.20
2019-06-27T09:48:57.828Z,6.40
2019-06-27T09:51:23.859Z,6.40
2019-06-27T09:53:49.915Z,7.20
2019-06-27T09:56:15.921Z,6.13
2019-06-27T09:58:41.907Z,5.53
2019-06-27T10:01:08.230Z,6.27
2019-06-27T10:03:34.211Z,5.67
2019-06-27T10:06:00.300Z,5.50
2019-06-27T10:08:26.298Z,6.50
2019-06-27T10:10:52.292Z,4.93
2019-06-27T10:13:18.312Z,4.73
2019-06-27T10:15:44.357Z,4.87
2019-06-27T10:18:10.352Z,4.93
2019-06-27T10:20:36.461Z,5.00
2019-06-27T10:23:02.607Z,4.90
2019-06-27T10:25:28.600Z,3.77
2019-06-27T10:27:54.807Z,4.40
2019-06-27T10:30:21.386Z,3.80
2019-06-27T10:32:58.281Z,3.97
2019-06-27T10:35:15.514Z,3.70
2019-06-27T10:37:42.305Z,3.80
2019-06-27T10:40:09.077Z,3.93
2019-06-27T10:42:35.181Z,4.23
2019-06-27T10:45:01.680Z,4.20
2019-06-27T10:47:27.963Z,4.47
2019-06-27T10:49:54.021Z,4.00
2019-06-27T10:52:20.136Z,3.57
2019-06-27T10:54:46.134Z,3.30
2019-06-27T10:57:12.242Z,3.17
2019-06-27T10:59:38.290Z,4.10
2019-06-27T11:02:05.582Z,3.53
2019-06-27T11:04:31.570Z,4.50
2019-06-27T11:06:57.580Z,3.10
2019-06-27T11:09:23.836Z,3.05
2019-06-27T11:11:49.917Z,2.20
2019-06-27T11:14:18.969Z,3.10
2019-06-27T11:16:44.286Z,3.30
2019-06-27T11:19:10.577Z,3.20
2019-06-27T11:21:36.737Z,3.60
2019-06-27T11:24:02.943Z,2.90
2019-06-27T11:26:28.989Z,3.50
2019-06-27T11:28:55.239Z,3.77
2019-06-27T11:31:23.508Z,3.23
2019-06-27T11:33:49.599Z,3.43
2019-06-27T11:36:15.637Z,3.30
2019-06-27T11:38:41.644Z,2.80
2019-06-27T11:41:08.092Z,3.47
2019-06-27T11:43:34.206Z,4.23
2019-06-27T11:46:02.297Z,2.57
2019-06-27T11:48:28.376Z,2.97
2019-06-27T11:50:54.820Z,3.40
2019-06-27T11:53:21.793Z,3.97
2019-06-27T11:55:47.897Z,3.40
2019-06-27T11:58:14.124Z,3.60
2019-06-27T12:00:40.178Z,3.80
2019-06-27T12:03:06.323Z,3.57
2019-06-27T12:05:32.417Z,2.73
2019-06-27T12:07:58.468Z,2.93
2019-06-27T12:10:24.720Z,3.13
2019-06-27T12:12:51.926Z,3.40
2019-06-27T12:15:18.168Z,3.70
2019-06-27T12:17:44.436Z,3.67
2019-06-27T12:20:10.658Z,3.00
2019-06-27T12:22:36.744Z,4.13
2019-06-27T12:25:03.322Z,3.10
2019-06-27T12:27:29.567Z,3.03
2019-06-27T12:29:55.592Z,3.10
2019-06-27T12:32:21.612Z,3.03
2019-06-27T12:34:47.659Z,3.57
2019-06-27T12:37:13.749Z,3.53
2019-06-27T12:39:43.528Z,3.27
2019-06-27T12:42:10.311Z,3.17
2019-06-27T12:44:36.324Z,3.10
2019-06-27T12:47:02.358Z,3.10
2019-06-27T12:49:44.877Z,3.23
2019-06-27T12:51:58.203Z,2.90
2019-06-27T12:54:25.529Z,2.67
2019-06-27T12:56:51.557Z,3.40
2019-06-27T12:59:17.672Z,2.97
2019-06-27T13:01:43.735Z,2.90
2019-06-27T13:04:22.988Z,2.87
2019-06-27T13:06:37.697Z,2.70
2019-06-27T13:09:05.105Z,2.47
2019-06-27T13:11:31.305Z,3.00
2019-06-27T13:13:57.590Z,2.77
2019-06-27T13:16:23.609Z,2.60
2019-06-27T13:18:49.659Z,2.43
2019-06-27T13:21:16.235Z,2.30
2019-06-27T13:23:42.710Z,2.10
2019-06-27T13:26:08.771Z,2.60
2019-06-27T13:28:34.792Z,2.30
2019-06-27T13:31:00.808Z,2.43
2019-06-27T13:33:26.883Z,2.40
2019-06-27T13:35:53.095Z,2.40
2019-06-27T13:38:19.190Z,2.40
2019-06-27T13:40:45.214Z,2.43
2019-06-27T13:43:11.236Z,2.83
2019-06-27T13:45:37.287Z,2.80
2019-06-27T13:48:03.323Z,3.10
2019-06-27T13:50:30.447Z,3.20
2019-06-27T13:52:56.477Z,3.40
2019-06-27T13:55:24.074Z,3.20
2019-06-27T13:57:50.588Z,3.10
2019-06-27T14:00:20.461Z,3.13
2019-06-27T14:02:46.483Z,2.37
2019-06-27T14:05:12.530Z,2.60
2019-06-27T14:07:39.781Z,2.97
2019-06-27T14:10:06.679Z,3.33
2019-06-27T14:12:33.794Z,2.53
2019-06-27T14:15:00.568Z,3.17
2019-06-27T14:17:26.943Z,3.27
2019-06-27T14:19:52.959Z,3.83
2019-06-27T14:22:32.789Z,4.20
2019-06-27T14:24:46.908Z,2.87
2019-06-27T14:27:13.264Z,3.60
2019-06-27T14:29:39.270Z,3.63
2019-06-27T14:32:05.418Z,3.40
2019-06-27T14:34:32.766Z,3.50
2019-06-27T14:36:58.772Z,3.00
2019-06-27T14:39:25.180Z,2.80
2019-06-27T14:41:51.194Z,3.40
2019-06-27T14:44:17.309Z,3.10
2019-06-27T14:46:43.425Z,2.80
2019-06-27T14:49:09.465Z,3.00
2019-06-27T14:51:36.016Z,3.47
2019-06-27T14:54:03.997Z,3.00
2019-06-27T14:56:30.034Z,3.70
2019-06-27T14:58:56.034Z,3.10
2019-06-27T15:01:22.089Z,3.00
2019-06-27T15:03:48.163Z,3.10
2019-06-27T15:06:14.190Z,3.57
2019-06-27T15:08:40.283Z,3.07
2019-06-27T15:11:06.339Z,3.50
2019-06-27T15:13:32.401Z,3.13
2019-06-27T15:16:11.257Z,3.53
2019-06-27T15:18:26.461Z,3.10
2019-06-27T15:20:52.413Z,3.33
2019-06-27T15:23:18.465Z,3.90
2019-06-27T15:25:44.507Z,3.70
2019-06-27T15:28:10.599Z,3.93
2019-06-27T15:30:36.689Z,3.60
2019-06-27T15:33:02.803Z,3.10
2019-06-27T15:35:28.805Z,3.40
2019-06-27T15:37:54.846Z,3.63
2019-06-27T15:40:22.039Z,3.80
2019-06-27T15:42:48.093Z,3.63
2019-06-27T15:45:14.613Z,3.30
2019-06-27T15:47:40.610Z,3.73
2019-06-27T15:50:08.250Z,3.73
2019-06-27T15:52:34.274Z,4.37
2019-06-27T15:55:00.354Z,3.30
2019-06-27T15:57:26.381Z,3.30
2019-06-27T15:59:57.175Z,3.70
2019-06-27T16:02:23.301Z,3.90
2019-06-27T16:04:49.409Z,4.30
2019-06-27T16:07:15.473Z,4.00
2019-06-27T16:09:44.010Z,3.33
2019-06-27T16:12:10.009Z,4.17
2019-06-27T16:14:36.160Z,3.87
2019-06-27T16:17:02.258Z,3.80
2019-06-27T16:19:29.068Z,3.40
2019-06-27T16:21:55.073Z,4.00
2019-06-27T16:24:21.407Z,3.33
2019-06-27T16:26:49.402Z,4.30
2019-06-27T16:29:16.180Z,4.37
2019-06-27T16:31:42.334Z,4.07
2019-06-27T16:34:08.348Z,4.30
2019-06-27T16:36:34.414Z,4.80
2019-06-27T16:39:00.446Z,4.40
2019-06-27T16:41:26.787Z,4.47
2019-06-27T16:43:53.031Z,4.10
2019-06-27T16:46:19.129Z,3.87
2019-06-27T16:48:45.236Z,4.33
2019-06-27T16:51:11.621Z,4.03
2019-06-27T16:53:37.649Z,4.70
2019-06-27T16:56:03.664Z,4.27
2019-06-27T16:58:29.701Z,4.67
2019-06-27T17:00:55.755Z,4.80
2019-06-27T17:03:23.645Z,4.30
2019-06-27T17:05:49.960Z,4.27
2019-06-27T17:08:16.095Z,4.47
2019-06-27T17:10:42.239Z,3.60
2019-06-27T17:13:08.313Z,3.67
2019-06-27T17:15:34.385Z,4.10
2019-06-27T17:18:00.413Z,4.07
2019-06-27T17:20:26.404Z,4.50
2019-06-27T17:22:52.566Z,3.93
2019-06-27T17:25:18.611Z,4.07
2019-06-27T17:27:45.355Z,4.60
2019-06-27T17:30:15.662Z,3.57
2019-06-27T17:32:42.022Z,3.50
2019-06-27T17:35:11.105Z,3.50
2019-06-27T17:37:37.165Z,4.43
2019-06-27T17:40:04.535Z,4.00
2019-06-27T17:42:33.661Z,3.60
2019-06-27T17:45:00.572Z,3.70
2019-06-27T17:47:27.410Z,4.27
2019-06-27T17:49:53.865Z,3.47
2019-06-27T17:52:20.303Z,3.80
2019-06-27T17:54:46.933Z,3.67
2019-06-27T17:57:13.913Z,3.80
2019-06-27T17:59:40.015Z,3.87
2019-06-27T18:02:07.239Z,3.87
2019-06-27T18:04:33.365Z,3.87
2019-06-27T18:07:13.027Z,4.13
2019-06-27T18:09:27.947Z,3.30
2019-06-27T18:11:54.690Z,3.33
2019-06-27T18:14:21.222Z,4.13
2019-06-27T18:16:48.581Z,3.27
2019-06-27T18:19:14.596Z,3.20
2019-06-27T18:21:43.044Z,4.00
2019-06-27T18:24:11.166Z,4.27
2019-06-27T18:26:37.845Z,3.70
2019-06-27T18:29:04.180Z,3.50
2019-06-27T18:31:30.357Z,4.17
2019-06-27T18:33:56.673Z,4.63
2019-06-27T18:36:22.869Z,4.27
2019-06-27T18:38:49.182Z,4.60
2019-06-27T18:41:16.673Z,5.37
2019-06-27T18:43:43.089Z,5.00
2019-06-27T18:46:09.186Z,4.17
2019-06-27T18:48:35.269Z,4.63
2019-06-27T18:51:01.504Z,6.37
2019-06-27T18:53:28.996Z,7.13
2019-06-27T18:55:55.161Z,4.80
2019-06-27T18:58:21.257Z,5.07
2019-06-27T19:00:47.365Z,3.80
2019-06-27T19:03:13.667Z,5.20
2019-06-27T19:05:39.720Z,7.50
2019-06-27T19:08:05.837Z,7.00
2019-06-27T19:10:31.865Z,6.73
2019-06-27T19:12:58.106Z,4.83
2019-06-27T19:15:24.135Z,4.00
2019-06-27T19:17:50.467Z,5.00
2019-06-27T19:20:27.450Z,4.03
2019-06-27T19:22:57.976Z,5.47
2019-06-27T19:25:25.977Z,4.23
2019-06-27T19:27:52.015Z,4.27
2019-06-27T19:30:18.069Z,4.77
2019-06-27T19:32:45.017Z,3.90
2019-06-27T19:35:11.228Z,3.93
2019-06-27T19:37:37.261Z,4.00
2019-06-27T19:40:06.722Z,3.90
2019-06-27T19:42:32.738Z,4.33
2019-06-27T19:44:58.759Z,4.30
2019-06-27T19:47:25.893Z,4.13
2019-06-27T19:49:53.057Z,4.10
2019-06-27T19:52:19.062Z,3.87
2019-06-27T19:54:45.145Z,4.00
2019-06-27T19:57:11.239Z,3.80
2019-06-27T19:59:39.160Z,4.67
2019-06-27T20:02:05.838Z,3.73
2019-06-27T20:04:34.086Z,5.50
2019-06-27T20:07:01.196Z,3.53
2019-06-27T20:09:27.492Z,4.07
2019-06-27T20:11:53.512Z,4.23
2019-06-27T20:14:19.539Z,3.97
2019-06-27T20:16:47.549Z,4.70
2019-06-27T20:19:14.407Z,4.80
2019-06-27T20:21:40.422Z,5.43
2019-06-27T20:24:07.929Z,5.07
2019-06-27T20:26:34.009Z,4.33
2019-06-27T20:29:00.061Z,4.40
2019-06-27T20:31:26.110Z,5.10
2019-06-27T20:33:52.388Z,4.10
2019-06-27T20:36:18.521Z,4.83
2019-06-27T20:38:45.597Z,4.67
2019-06-27T20:41:12.752Z,4.60
2019-06-27T20:43:38.798Z,4.40
2019-06-27T20:46:04.902Z,4.97
2019-06-27T20:48:30.930Z,4.30
2019-06-27T20:50:57.226Z,4.77
2019-06-27T20:53:23.464Z,4.90
2019-06-27T20:55:49.497Z,4.30
2019-06-27T20:58:15.523Z,4.20
2019-06-27T21:00:41.617Z,4.13
2019-06-27T21:03:07.649Z,4.73
2019-06-27T21:05:33.677Z,3.97
2019-06-27T21:07:59.691Z,5.80
2019-06-27T21:10:27.677Z,4.30
2019-06-27T21:12:53.722Z,4.20
2019-06-27T21:15:19.877Z,4.10
2019-06-27T21:17:45.879Z,4.37
2019-06-27T21:20:12.107Z,4.17
2019-06-27T21:22:38.840Z,4.07
2019-06-27T21:25:05.078Z,4.20
2019-06-27T21:27:31.135Z,4.10
2019-06-27T21:29:57.292Z,4.80
2019-06-27T21:32:31.420Z,3.97
2019-06-27T21:34:51.513Z,4.00
2019-06-27T21:37:17.760Z,4.00
2019-06-27T21:39:43.877Z,3.97
2019-06-27T21:42:09.873Z,3.90
2019-06-27T21:44:35.900Z,4.17
2019-06-27T21:47:01.970Z,4.30
2019-06-27T21:49:28.477Z,4.60
2019-06-27T21:51:54.490Z,3.87
2019-06-27T21:54:24.164Z,4.33
2019-06-27T21:56:50.256Z,4.13
2019-06-27T21:59:16.259Z,4.67
2019-06-27T22:01:42.266Z,4.20
2019-06-27T22:04:08.417Z,4.70
2019-06-27T22:06:34.864Z,3.73
2019-06-27T22:09:00.880Z,4.63
2019-06-27T22:11:26.879Z,4.20
2019-06-27T22:13:52.901Z,4.73
2019-06-27T22:16:18.941Z,4.90
2019-06-27T22:18:45.110Z,4.87
2019-06-27T22:21:11.196Z,4.50
2019-06-27T22:23:37.184Z,4.90
2019-06-27T22:26:03.241Z,4.83
2019-06-27T22:28:29.284Z,4.50
2019-06-27T22:30:57.802Z,4.40
2019-06-27T22:33:25.876Z,4.57
2019-06-27T22:35:51.881Z,4.53
2019-06-27T22:38:36.020Z,4.20
2019-06-27T22:41:21.843Z,3.90
2019-06-27T22:44:06.191Z,4.10
2019-06-27T22:46:50.560Z,3.90
2019-06-27T22:49:16.695Z,4.07
2019-06-27T22:51:47.190Z,4.70
2019-06-27T22:54:21.014Z,3.87
2019-06-27T22:56:48.535Z,4.27
2019-06-27T22:59:14.571Z,4.70
2019-06-27T23:01:40.597Z,3.87
2019-06-27T23:04:06.596Z,4.37
2019-06-27T23:06:33.944Z,4.07
2019-06-27T23:09:02.151Z,4.50
2019-06-27T23:11:29.709Z,4.40
2019-06-27T23:13:55.997Z,4.03
2019-06-27T23:16:22.189Z,4.13
2019-06-27T23:18:48.191Z,4.57
2019-06-27T23:21:14.199Z,4.37
2019-06-27T23:23:40.238Z,4.50
2019-06-27T23:26:06.259Z,4.50
2019-06-27T23:28:32.260Z,5.43
2019-06-27T23:30:58.323Z,4.43
2019-06-27T23:33:24.338Z,4.90
2019-06-27T23:35:50.371Z,3.97
2019-06-27T23:38:16.461Z,4.00
2019-06-27T23:40:44.443Z,4.30
2019-06-27T23:43:10.514Z,4.50
2019-06-27T23:45:37.377Z,4.47
2019-06-27T23:48:03.360Z,5.33
2019-06-27T23:50:29.371Z,4.73
2019-06-27T23:52:55.405Z,4.93
2019-06-27T23:55:21.401Z,5.37
2019-06-27T23:57:47.429Z,4.63
